Newport News, Virginia
Current Conditions -  °F | °C
As of 5:08 PM on Monday 22 Dec 2014 (Local Time) from KLFI Reporting Station
Haze Haze  
Wind Chill: 39°   Ceiling: 400
Heat Index: 45°   Visibility: 3mi
Dew Point: 43°   Wind: 12mph
Humidity: 93%   Direction: 10°N
Pressure: 30.05"   Gusts: NA
Location:  36.98°N, 76.43°W
Report Text: KLFI 222208Z AUTO 01010KT 3SM R08/3500FT BR BKN004 OVC009 07/06 A3005 RMK AO2 VIS 2 RWY26 CIG 004V009 BKN V SCT $
Loading
Personal Weather Stations






























Interactive Weather Map New forecast layout! Learn more

10-Day Weather Forecast

Advertisements
Track Severe Weather on mobile